createdAt,value
2023-04-29T00:00:32.229Z,8.54
2023-04-29T00:05:36.778Z,8.49
2023-04-29T00:10:43.227Z,8.51
2023-04-29T00:15:50.636Z,8.47
2023-04-29T00:20:54.386Z,8.45
2023-04-29T00:26:00.943Z,8.42
2023-04-29T00:31:02.691Z,8.41
2023-04-29T00:36:04.646Z,8.40
2023-04-29T00:41:09.114Z,8.38
2023-04-29T00:46:13.768Z,8.40
2023-04-29T00:51:21.635Z,8.41
2023-04-29T00:56:25.705Z,8.41
2023-04-29T01:01:28.090Z,8.44
2023-04-29T01:06:49.556Z,8.46
2023-04-29T01:12:16.790Z,8.45
2023-04-29T01:17:26.923Z,8.42
2023-04-29T01:22:29.670Z,8.40
2023-04-29T01:27:39.999Z,8.40
2023-04-29T01:32:54.114Z,8.41
2023-04-29T01:38:09.605Z,8.39
2023-04-29T01:43:18.547Z,8.38
2023-04-29T01:48:25.075Z,8.36
2023-04-29T01:53:27.361Z,8.36
2023-04-29T01:58:29.569Z,8.34
2023-04-29T02:03:31.363Z,8.33
2023-04-29T02:08:38.305Z,8.33
2023-04-29T02:13:42.365Z,8.31
2023-04-29T02:18:50.755Z,8.23
2023-04-29T02:23:54.408Z,7.98
2023-04-29T02:29:03.565Z,7.66
2023-04-29T02:34:10.131Z,7.40
2023-04-29T02:39:11.879Z,7.18
2023-04-29T02:44:15.988Z,7.01
2023-04-29T02:49:20.086Z,6.86
2023-04-29T02:54:21.828Z,6.73
2023-04-29T02:59:25.778Z,6.65
2023-04-29T03:04:30.297Z,6.57
2023-04-29T03:09:34.646Z,6.52
2023-04-29T03:14:39.100Z,7.11
2023-04-29T03:19:47.786Z,7.04
2023-04-29T03:24:52.052Z,7.09
2023-04-29T03:29:56.105Z,7.16
2023-04-29T03:34:58.186Z,7.25
2023-04-29T03:40:22.690Z,7.33
2023-04-29T03:45:27.867Z,7.36
2023-04-29T03:50:30.175Z,7.42
2023-04-29T03:55:34.608Z,7.49
2023-04-29T04:00:38.799Z,7.57
2023-04-29T04:05:48.805Z,7.65
2023-04-29T04:10:51.439Z,7.75
2023-04-29T04:16:13.709Z,7.82
2023-04-29T04:21:19.226Z,7.88
2023-04-29T04:26:28.924Z,7.91
2023-04-29T04:31:40.928Z,7.95
2023-04-29T04:36:44.315Z,8.03
2023-04-29T04:41:46.140Z,8.36
2023-04-29T04:46:48.241Z,8.29
2023-04-29T04:52:01.104Z,8.27
2023-04-29T04:57:06.822Z,8.27
2023-04-29T05:02:11.208Z,8.27
2023-04-29T05:07:15.212Z,8.31
2023-04-29T05:12:35.229Z,8.34
2023-04-29T05:17:38.062Z,8.39
2023-04-29T05:22:39.972Z,8.47
2023-04-29T05:27:44.842Z,8.59
2023-04-29T05:32:53.465Z,8.59
2023-04-29T05:37:56.760Z,8.64
2023-04-29T05:43:24.919Z,8.61
2023-04-29T05:48:31.377Z,8.60
2023-04-29T05:53:41.075Z,8.62
2023-04-29T05:58:43.139Z,8.63
2023-04-29T06:03:45.091Z,8.71
2023-04-29T06:09:13.353Z,8.76
2023-04-29T06:14:22.638Z,8.83
2023-04-29T06:19:25.416Z,8.94
2023-04-29T06:24:30.156Z,9.03
2023-04-29T06:29:34.313Z,9.17
2023-04-29T06:34:38.561Z,9.30
2023-04-29T06:40:00.486Z,9.37
2023-04-29T06:45:31.711Z,9.59
2023-04-29T06:50:57.722Z,9.77
2023-04-29T06:56:01.678Z,9.98
2023-04-29T07:01:04.268Z,10.15
2023-04-29T07:06:06.597Z,10.21
2023-04-29T07:11:08.410Z,10.33
2023-04-29T07:16:18.411Z,10.38
2023-04-29T07:21:20.163Z,10.58
2023-04-29T07:26:24.917Z,10.67
2023-04-29T07:31:31.723Z,10.83
2023-04-29T07:36:36.056Z,11.06
2023-04-29T07:41:39.851Z,11.20
2023-04-29T07:46:49.477Z,11.40
2023-04-29T07:51:51.282Z,11.50
2023-04-29T07:56:53.033Z,11.58
2023-04-29T08:01:59.910Z,11.14
2023-04-29T08:07:04.577Z,10.90
2023-04-29T08:12:11.151Z,10.90
2023-04-29T08:17:15.484Z,11.48
2023-04-29T08:22:17.368Z,11.93
2023-04-29T08:27:19.875Z,11.99
2023-04-29T08:32:24.651Z,11.81
2023-04-29T08:37:28.652Z,11.74
2023-04-29T08:42:37.928Z,11.69
2023-04-29T08:47:42.371Z,11.69
2023-04-29T08:52:48.822Z,11.67
2023-04-29T08:57:54.912Z,11.69
2023-04-29T09:02:57.661Z,11.59
2023-04-29T09:08:01.869Z,11.59
2023-04-29T09:13:03.697Z,11.86
2023-04-29T09:18:10.344Z,12.02
2023-04-29T09:23:14.437Z,12.10
2023-04-29T09:28:26.392Z,12.14
2023-04-29T09:33:31.440Z,12.13
2023-04-29T09:38:33.807Z,12.28
2023-04-29T09:43:49.819Z,12.38
2023-04-29T09:48:51.861Z,12.32
2023-04-29T09:53:53.761Z,12.47
2023-04-29T09:59:08.396Z,12.57
2023-04-29T10:04:17.019Z,12.61
2023-04-29T10:09:22.890Z,12.71
2023-04-29T10:14:27.708Z,12.73
2023-04-29T10:19:35.929Z,12.79
2023-04-29T10:24:37.918Z,12.85
2023-04-29T10:29:43.768Z,12.93
2023-04-29T10:34:48.091Z,12.98
2023-04-29T10:40:05.880Z,13.05
2023-04-29T10:45:30.074Z,12.92
2023-04-29T10:50:33.340Z,13.08
2023-04-29T10:55:38.918Z,13.07
2023-04-29T11:00:40.732Z,13.09
2023-04-29T11:05:46.285Z,13.06
2023-04-29T11:10:53.096Z,13.20
2023-04-29T11:16:07.484Z,13.32
2023-04-29T11:21:12.288Z,13.39
2023-04-29T11:26:14.069Z,13.46
2023-04-29T11:31:18.086Z,13.43
2023-04-29T11:36:19.822Z,13.67
2023-04-29T11:41:25.977Z,13.70
2023-04-29T11:46:33.054Z,13.96
2023-04-29T11:51:37.799Z,14.15
2023-04-29T11:56:39.720Z,14.94
2023-04-29T12:01:42.363Z,16.38
2023-04-29T12:06:44.259Z,17.38
2023-04-29T12:11:51.256Z,18.72
2023-04-29T12:16:54.350Z,19.29
2023-04-29T12:21:59.711Z,20.20
2023-04-29T12:27:01.728Z,20.76
2023-04-29T12:32:09.399Z,21.87
2023-04-29T12:37:21.529Z,22.38
2023-04-29T12:42:23.684Z,22.83
2023-04-29T12:47:34.798Z,23.68
2023-04-29T12:52:36.997Z,24.23
2023-04-29T12:57:39.786Z,25.11
2023-04-29T13:02:44.516Z,25.19
2023-04-29T13:07:46.502Z,24.89
2023-04-29T13:12:50.662Z,25.74
2023-04-29T13:17:52.753Z,25.37
2023-04-29T13:22:56.895Z,25.84
2023-04-29T13:28:01.004Z,26.79
2023-04-29T13:33:11.855Z,26.29
2023-04-29T13:38:15.085Z,25.69
2023-04-29T13:43:26.345Z,23.66
2023-04-29T13:59:36.164Z,20.05
2023-04-29T14:04:17.652Z,19.53
2023-04-29T14:09:22.780Z,19.70
2023-04-29T14:14:24.567Z,19.02
2023-04-29T14:19:26.331Z,18.19
2023-04-29T14:24:30.956Z,18.21
2023-04-29T14:29:35.154Z,17.82
2023-04-29T14:34:39.859Z,17.57
2023-04-29T14:39:46.989Z,17.29
2023-04-29T14:44:51.724Z,16.92
2023-04-29T14:49:53.589Z,16.26
2023-04-29T14:54:55.538Z,15.80
2023-04-29T14:59:57.483Z,15.47
2023-04-29T15:05:04.196Z,15.38
2023-04-29T15:10:07.905Z,15.05
2023-04-29T15:15:11.918Z,14.72
2023-04-29T15:20:15.876Z,14.55
2023-04-29T15:25:19.736Z,14.93
2023-04-29T15:30:26.430Z,15.18
2023-04-29T15:35:28.252Z,15.25
2023-04-29T15:40:32.974Z,15.56
2023-04-29T15:45:37.289Z,16.03
2023-04-29T15:50:43.565Z,16.96
2023-04-29T15:55:48.554Z,17.55
2023-04-29T16:00:53.700Z,17.04
2023-04-29T16:05:57.668Z,16.13
2023-04-29T16:11:01.821Z,18.88
2023-04-29T16:16:05.815Z,17.67
2023-04-29T16:21:07.573Z,17.51
2023-04-29T16:26:14.324Z,22.48
2023-04-29T16:31:19.965Z,24.52
2023-04-29T16:36:21.823Z,24.33
2023-04-29T16:41:24.112Z,20.78
2023-04-29T16:46:28.578Z,18.47
2023-04-29T16:51:30.361Z,17.18
2023-04-29T16:56:32.194Z,16.64
2023-04-29T17:01:34.010Z,16.32
2023-04-29T17:06:40.672Z,15.98
2023-04-29T17:11:49.188Z,15.22
2023-04-29T17:16:50.968Z,14.98
2023-04-29T17:21:56.853Z,14.26
2023-04-29T17:26:59.678Z,13.87
2023-04-29T17:32:04.596Z,13.46
2023-04-29T17:37:07.056Z,12.88
2023-04-29T17:42:08.927Z,12.79
2023-04-29T17:47:15.153Z,12.34
2023-04-29T17:52:21.475Z,12.11
2023-04-29T17:57:24.218Z,11.86
2023-04-29T18:02:28.388Z,11.81
2023-04-29T18:07:30.186Z,11.68
2023-04-29T18:12:31.992Z,11.42
2023-04-29T18:17:34.080Z,11.31
2023-04-29T18:22:41.532Z,11.06
2023-04-29T18:27:43.236Z,10.67
2023-04-29T18:32:47.191Z,10.51
2023-04-29T18:37:51.652Z,10.28
2023-04-29T18:42:53.493Z,10.10
2023-04-29T18:47:57.634Z,9.96
2023-04-29T18:53:02.207Z,10.04
2023-04-29T18:58:04.323Z,9.95
2023-04-29T19:03:08.501Z,9.74
2023-04-29T19:08:10.646Z,9.57
2023-04-29T19:13:12.785Z,9.44
2023-04-29T19:18:14.877Z,9.30
2023-04-29T19:23:16.670Z,9.18
2023-04-29T19:28:21.061Z,9.29
2023-04-29T19:33:25.396Z,9.35
2023-04-29T19:38:29.462Z,9.29
2023-04-29T19:43:33.654Z,9.18
2023-04-29T19:48:38.065Z,9.12
2023-04-29T19:53:40.713Z,9.05
2023-04-29T19:58:48.394Z,8.93
2023-04-29T20:03:50.608Z,8.68
2023-04-29T20:08:52.696Z,8.47
2023-04-29T20:14:04.398Z,8.33
2023-04-29T20:19:06.245Z,8.19
2023-04-29T20:24:10.601Z,8.04
2023-04-29T20:29:14.671Z,7.87
2023-04-29T20:34:16.453Z,7.79
2023-04-29T20:39:22.642Z,7.77
2023-04-29T20:44:27.383Z,7.94
2023-04-29T20:49:29.079Z,7.95
2023-04-29T20:54:30.754Z,8.24
2023-04-29T20:59:37.661Z,7.89
2023-04-29T21:04:39.600Z,7.63
2023-04-29T21:09:43.608Z,7.43
2023-04-29T21:14:47.806Z,7.24
2023-04-29T21:19:49.556Z,7.13
2023-04-29T21:24:51.255Z,7.12
2023-04-29T21:29:56.865Z,7.04
2023-04-29T21:35:00.836Z,6.92
2023-04-29T21:40:04.288Z,6.81
2023-04-29T21:45:09.409Z,6.74
2023-04-29T21:50:13.637Z,6.63
2023-04-29T21:55:15.492Z,6.56
2023-04-29T22:00:32.979Z,6.48
2023-04-29T22:05:38.205Z,6.39
2023-04-29T22:10:41.452Z,6.32
2023-04-29T22:15:45.570Z,6.26
2023-04-29T22:20:50.309Z,6.18
2023-04-29T22:25:54.223Z,6.09
2023-04-29T22:31:00.703Z,6.00
2023-04-29T22:36:05.318Z,5.93
2023-04-29T22:41:11.658Z,5.85
2023-04-29T22:46:15.890Z,5.77
2023-04-29T22:51:20.228Z,5.66
2023-04-29T22:56:24.672Z,5.62
2023-04-29T23:01:26.495Z,5.61
2023-04-29T23:06:28.333Z,5.49
2023-04-29T23:11:32.144Z,5.38
2023-04-29T23:16:36.140Z,5.30
2023-04-29T23:21:40.371Z,5.21
2023-04-29T23:26:46.914Z,5.15
2023-04-29T23:31:48.732Z,5.06
2023-04-29T23:36:50.678Z,5.03
2023-04-29T23:41:54.462Z,4.92
2023-04-29T23:46:56.143Z,4.85
2023-04-29T23:51:57.914Z,4.75
2023-04-29T23:57:02.717Z,4.67
